Time;durP1;ratioP1;P1;durP2;ratioP2;P2;SDS_P1;SDS_P2;PMS_P1;PMS_P2;Temp;Humidity;BMP_temperature;BMP_pressure;BME280_temperature;BME280_humidity;BME280_pressure;Samples;Min_cycle;Max_cycle;Signal;HPM_P1;HPM_P2
2021/08/28 00:03:36;;;;;;;21.90;12.60;;;;;;;18.08;100.00;94484.38;10291212;28;20062;-73
2021/08/28 00:08:37;;;;;;;21.67;13.20;;;;;;;17.87;100.00;94487.78;10291089;28;20058;-73
2021/08/28 00:13:39;;;;;;;22.83;13.97;;;;;;;17.71;100.00;94500.34;10291085;28;20031;-74
2021/08/28 00:18:39;;;;;;;24.00;14.05;;;;;;;17.64;100.00;94489.97;10291195;28;20058;-74
2021/08/28 00:23:40;;;;;;;22.87;14.40;;;;;;;17.69;100.00;94494.41;10290598;28;20113;-74
2021/08/28 00:28:40;;;;;;;27.40;14.30;;;;;;;17.43;100.00;94493.34;10290529;28;20035;-74
2021/08/28 00:33:40;;;;;;;24.93;14.47;;;;;;;17.33;100.00;94492.88;10290204;28;20034;-74
2021/08/28 00:38:41;;;;;;;29.00;15.77;;;;;;;17.06;100.00;94487.47;10289120;28;20278;-74
2021/08/28 00:43:41;;;;;;;23.30;14.63;;;;;;;17.14;100.00;94491.31;10288925;28;20498;-73
2021/08/28 00:48:42;;;;;;;29.50;15.75;;;;;;;16.86;100.00;94494.31;10288959;28;20039;-74
2021/08/28 00:53:42;;;;;;;30.57;16.17;;;;;;;17.02;100.00;94488.44;10288940;28;20037;-74
2021/08/28 00:58:43;;;;;;;24.87;13.90;;;;;;;17.10;100.00;94487.66;10289716;28;20361;-74
2021/08/28 01:03:47;;;;;;;22.75;14.05;;;;;;;16.95;100.00;94497.06;10289037;28;20276;-73
2021/08/28 01:09:05;;;;;;;25.65;14.85;;;;;;;16.99;100.00;94494.53;10288224;28;20074;-74
2021/08/28 01:14:19;;;;;;;24.58;14.93;;;;;;;16.91;100.00;94506.97;10288020;28;20405;-74
2021/08/28 01:19:35;;;;;;;25.85;14.48;;;;;;;16.74;100.00;94510.44;10286193;28;20038;-73
2021/08/28 01:24:43;;;;;;;25.38;14.27;;;;;;;16.76;100.00;94505.50;10287493;28;20039;-73
2021/08/28 01:29:43;;;;;;;;;;;;;;;16.73;100.00;94506.13;10288610;28;20053;-73
2021/08/28 01:34:45;;;;;;;21.80;13.88;;;;;;;16.67;100.00;94499.25;10288352;28;19910;-73
2021/08/28 01:39:47;;;;;;;24.77;14.35;;;;;;;16.61;100.00;94492.41;10287936;28;20034;-73
2021/08/28 01:44:50;;;;;;;26.90;14.65;;;;;;;16.65;100.00;94499.56;10287777;28;20050;-73
2021/08/28 01:49:51;;;;;;;22.60;14.35;;;;;;;16.54;100.00;94499.06;10287392;28;20487;-74
2021/08/28 01:54:53;;;;;;;25.83;14.45;;;;;;;16.54;100.00;94488.22;10286622;28;20034;-73
2021/08/28 01:59:53;;;;;;;22.48;14.32;;;;;;;16.54;100.00;94490.94;10286052;28;20034;-73
2021/08/28 02:04:54;;;;;;;25.88;14.40;;;;;;;16.57;100.00;94492.22;10285807;28;20035;-73
2021/08/28 02:10:02;;;;;;;25.80;14.73;;;;;;;16.49;100.00;94493.00;10286500;28;20062;-73
2021/08/28 02:15:10;;;;;;;27.30;15.13;;;;;;;16.51;100.00;94494.28;10286748;28;20031;-73
2021/08/28 02:20:12;;;;;;;23.25;14.52;;;;;;;16.35;100.00;94495.84;10285473;28;20039;-73
2021/08/28 02:25:24;;;;;;;29.17;16.90;;;;;;;16.39;100.00;94485.97;10286377;28;20039;-73
2021/08/28 02:30:27;;;;;;;23.77;14.13;;;;;;;16.47;100.00;94487.91;10286324;28;20034;-73
2021/08/28 02:35:29;;;;;;;21.10;12.95;;;;;;;16.47;100.00;94498.75;10285691;28;20037;-73
2021/08/28 02:40:32;;;;;;;26.67;15.10;;;;;;;16.43;100.00;94503.19;10285164;28;20030;-74
2021/08/28 02:45:33;;;;;;;25.13;14.02;;;;;;;16.35;100.00;94506.69;10286135;28;20031;-74
2021/08/28 02:50:35;;;;;;;23.52;12.32;;;;;;;16.52;100.00;94490.47;10285625;28;20035;-73
2021/08/28 02:55:37;;;;;;;25.17;15.20;;;;;;;16.35;100.00;94498.56;10285972;28;20085;-73
2021/08/28 03:00:39;;;;;;;25.23;14.10;;;;;;;16.22;100.00;94494.84;10285895;28;20035;-74
2021/08/28 03:05:40;;;;;;;23.13;13.10;;;;;;;16.27;100.00;94497.44;10284085;28;20085;-74
2021/08/28 03:10:45;;;;;;;26.67;14.65;;;;;;;16.12;100.00;94490.53;10285563;28;20509;-74
2021/08/28 03:15:46;;;;;;;24.67;13.50;;;;;;;16.28;100.00;94492.81;10285142;28;20029;-73
2021/08/28 03:20:49;;;;;;;23.70;12.98;;;;;;;16.31;100.00;94501.13;10285524;28;20039;-73
2021/08/28 03:25:51;;;;;;;22.60;13.43;;;;;;;16.40;100.00;94503.84;10285493;28;20572;-73
2021/08/28 03:30:52;;;;;;;26.52;14.02;;;;;;;16.44;100.00;94510.22;10287709;28;20367;-73
2021/08/28 03:35:52;;;;;;;26.70;15.10;;;;;;;16.38;100.00;94512.31;10292815;28;20027;-74
2021/08/28 03:40:53;;;;;;;23.40;13.30;;;;;;;16.42;100.00;94509.72;10292598;28;20486;-73
2021/08/28 03:45:54;;;;;;;23.55;13.57;;;;;;;16.44;100.00;94515.66;10290857;28;20035;-74
2021/08/28 03:50:56;;;;;;;22.05;13.15;;;;;;;16.55;100.00;94522.38;10291885;28;20050;-74
2021/08/28 03:55:57;;;;;;;21.30;12.07;;;;;;;16.57;100.00;94525.56;10291798;28;20109;-73
2021/08/28 04:00:57;;;;;;;27.70;13.63;;;;;;;16.62;100.00;94513.78;10291601;28;20022;-74
2021/08/28 04:05:57;;;;;;;24.70;13.50;;;;;;;16.50;100.00;94524.44;10291451;28;20298;-73
2021/08/28 04:10:58;;;;;;;25.80;15.23;;;;;;;16.55;100.00;94533.22;10290149;28;20880;-74
2021/08/28 04:15:58;;;;;;;22.90;13.30;;;;;;;16.53;100.00;94535.44;10290898;28;20053;-74
2021/08/28 04:20:58;;;;;;;25.57;13.20;;;;;;;16.56;100.00;94534.03;10290963;28;20274;-74
2021/08/28 04:25:59;;;;;;;22.40;13.67;;;;;;;16.76;100.00;94532.63;10290929;28;20022;-73
2021/08/28 04:30:59;;;;;;;24.17;13.20;;;;;;;16.75;100.00;94541.88;10290581;28;20027;-73
2021/08/28 04:36:00;;;;;;;25.87;14.53;;;;;;;16.98;100.00;94531.75;10289378;28;20466;-74
2021/08/28 04:41:00;;;;;;;24.50;13.27;;;;;;;17.09;100.00;94537.63;10290308;28;20489;-74
2021/08/28 04:46:00;;;;;;;25.13;13.90;;;;;;;16.87;100.00;94539.34;10290007;28;20037;-73
2021/08/28 04:51:01;;;;;;;27.27;15.15;;;;;;;16.63;100.00;94541.69;10289708;28;20089;-74
2021/08/28 04:56:02;;;;;;;24.25;13.32;;;;;;;16.79;100.00;94539.34;10289870;28;20034;-73
2021/08/28 05:01:02;;;;;;;27.17;13.38;;;;;;;16.87;100.00;94549.41;10289217;28;20041;-74
2021/08/28 05:06:03;;;;;;;31.07;16.27;;;;;;;16.94;100.00;94527.25;10287694;28;20129;-74
2021/08/28 05:11:03;;;;;;;28.23;15.60;;;;;;;16.85;100.00;94538.06;10287881;28;20293;-73
2021/08/28 05:16:04;;;;;;;46.83;21.67;;;;;;;16.88;100.00;94538.28;10287892;28;20035;-73
2021/08/28 05:21:04;;;;;;;26.38;15.30;;;;;;;17.49;100.00;94532.03;10288509;28;20550;-74
2021/08/28 05:26:04;;;;;;;25.37;14.13;;;;;;;18.00;100.00;94539.59;10288590;28;20117;-73
2021/08/28 05:31:05;;;;;;;24.73;15.30;;;;;;;18.09;100.00;94548.53;10288147;28;20034;-73
2021/08/28 05:36:05;;;;;;;24.07;14.77;;;;;;;18.50;100.00;94547.06;10287912;28;20023;-74
2021/08/28 05:41:06;;;;;;;22.98;13.93;;;;;;;19.01;100.00;94533.50;10288933;28;20403;-74
2021/08/28 05:46:06;;;;;;;27.35;13.23;;;;;;;19.48;100.00;94532.50;10291040;28;20025;-73
2021/08/28 05:51:06;;;;;;;20.13;13.20;;;;;;;19.85;100.00;94521.72;10290575;28;20066;-74
2021/08/28 05:56:07;;;;;;;27.00;13.33;;;;;;;20.24;100.00;94533.16;10290275;28;20044;-74
2021/08/28 06:01:07;;;;;;;22.77;12.07;;;;;;;20.63;100.00;94521.91;10290656;28;20266;-73
2021/08/28 06:06:08;;;;;;;20.80;13.18;;;;;;;20.93;100.00;94518.91;10289884;28;20061;-73
2021/08/28 06:11:08;;;;;;;26.50;12.87;;;;;;;20.83;100.00;94514.72;10287656;28;20035;-75
2021/08/28 06:16:08;;;;;;;22.27;13.87;;;;;;;20.46;100.00;94512.81;10289007;28;20509;-74
2021/08/28 06:21:09;;;;;;;19.53;12.90;;;;;;;20.05;100.00;94521.97;10288651;28;20343;-74
2021/08/28 06:26:09;;;;;;;28.17;13.80;;;;;;;20.03;100.00;94522.31;10288988;28;20034;-74
2021/08/28 06:31:10;;;;;;;22.08;12.15;;;;;;;21.31;100.00;94504.81;10288212;28;20301;-74
2021/08/28 06:36:10;;;;;;;21.80;12.00;;;;;;;22.63;100.00;94503.16;10271381;28;20030;-74
2021/08/28 06:41:11;;;;;;;24.80;11.40;;;;;;;21.85;100.00;94495.38;10288054;28;20034;-74
2021/08/28 06:46:11;;;;;;;22.93;11.80;;;;;;;23.01;98.43;94500.84;10285834;28;20034;-74
2021/08/28 06:51:11;;;;;;;22.90;11.67;;;;;;;24.66;87.79;94483.16;10285585;28;20134;-73
2021/08/28 06:56:12;;;;;;;21.93;10.67;;;;;;;25.92;71.99;94481.97;10285446;28;20050;-73
2021/08/28 07:01:12;;;;;;;22.17;11.50;;;;;;;26.47;66.81;94483.28;10285148;28;20018;-74
2021/08/28 07:06:12;;;;;;;17.57;10.53;;;;;;;25.33;68.04;94479.75;10271452;28;20047;-75
2021/08/28 07:11:13;;;;;;;20.10;11.73;;;;;;;24.81;75.90;94484.94;10275749;28;20035;-74
2021/08/28 07:16:13;;;;;;;17.95;11.50;;;;;;;25.67;71.89;94482.50;10275763;28;20027;-74
2021/08/28 07:21:16;;;;;;;18.48;10.88;;;;;;;26.19;68.21;94485.44;10291203;28;20019;-74
2021/08/28 07:26:17;;;;;;;24.95;11.60;;;;;;;26.59;63.64;94486.50;10293662;28;20041;-74
2021/08/28 07:31:17;;;;;;;22.20;11.45;;;;;;;25.02;74.09;94483.63;10293804;28;20039;-74
2021/08/28 07:36:18;;;;;;;16.92;10.55;;;;;;;25.46;72.42;94485.03;10293792;28;20027;-74
2021/08/28 07:41:18;;;;;;;18.77;10.87;;;;;;;26.97;64.91;94472.59;10293758;28;20019;-74
2021/08/28 07:46:18;;;;;;;17.50;8.83;;;;;;;28.75;56.31;94460.88;10295396;28;20901;-74
2021/08/28 07:51:19;;;;;;;18.47;9.60;;;;;;;30.44;48.39;94457.34;10333300;28;20063;-74
2021/08/28 07:56:19;;;;;;;16.57;8.87;;;;;;;31.61;43.80;94452.25;10315874;28;20469;-74
2021/08/28 08:01:20;;;;;;;12.17;8.23;;;;;;;31.78;41.76;94442.88;10332815;28;20783;-74
2021/08/28 08:06:21;;;;;;;10.83;8.07;;;;;;;31.97;41.07;94441.41;10332647;28;20043;-74
2021/08/28 08:11:21;;;;;;;13.88;8.68;;;;;;;31.39;43.03;94435.03;10332715;28;20106;-74
2021/08/28 08:16:22;;;;;;;16.13;9.40;;;;;;;30.61;46.17;94425.09;10332451;28;20025;-75
2021/08/28 08:21:22;;;;;;;17.07;9.90;;;;;;;32.08;40.88;94429.34;10331897;28;20048;-74
2021/08/28 08:26:23;;;;;;;13.47;9.53;;;;;;;33.06;38.09;94415.41;10332415;28;20030;-74
2021/08/28 08:31:24;;;;;;;14.73;9.65;;;;;;;34.26;37.42;94416.47;10331897;28;20368;-74
2021/08/28 08:36:24;;;;;;;14.63;8.37;;;;;;;35.22;36.33;94404.06;10331495;28;20559;-74
2021/08/28 08:41:25;;;;;;;13.20;9.20;;;;;;;35.83;34.53;94398.78;10331678;28;20033;-74
2021/08/28 08:46:27;;;;;;;12.02;8.30;;;;;;;36.00;32.71;94389.03;10331247;28;20453;-74
2021/08/28 08:51:30;;;;;;;15.13;7.82;;;;;;;35.66;33.43;94372.91;10331326;28;20053;-74
2021/08/28 08:56:30;;;;;;;12.98;8.48;;;;;;;35.39;33.80;94374.06;10331059;28;20030;-74
2021/08/28 09:01:31;;;;;;;14.27;9.25;;;;;;;31.94;38.86;94364.44;10330291;28;20027;-74
2021/08/28 09:06:31;;;;;;;15.63;10.10;;;;;;;32.85;40.39;94370.06;10330358;28;20077;-74
2021/08/28 09:11:32;;;;;;;12.90;8.33;;;;;;;34.63;36.03;94350.22;10330332;28;20556;-75
2021/08/28 09:16:33;;;;;;;11.63;8.43;;;;;;;35.69;34.09;94339.22;10329934;28;20109;-75
2021/08/28 09:21:34;;;;;;;17.33;9.37;;;;;;;34.53;35.91;94333.31;10330031;28;20546;-74
2021/08/28 09:26:43;;;;;;;12.98;9.68;;;;;;;32.93;38.29;94330.97;10329915;28;20403;-74
2021/08/28 09:31:53;;;;;;;12.43;10.30;;;;;;;31.52;42.58;94336.03;10328988;28;20026;-75
2021/08/28 09:37:05;;;;;;;19.20;11.88;;;;;;;30.84;43.60;94316.28;10329396;28;20394;-75
2021/08/28 09:42:07;;;;;;;16.00;12.13;;;;;;;30.76;46.81;94312.03;10329191;28;20108;-75
2021/08/28 09:47:21;;;;;;;17.45;11.25;;;;;;;32.48;42.64;94290.44;10328628;28;20033;-74
2021/08/28 09:52:24;;;;;;;17.95;9.90;;;;;;;33.43;40.44;94287.38;10328701;28;20030;-74
2021/08/28 09:57:28;;;;;;;17.50;10.57;;;;;;;32.29;41.07;94292.78;10328718;28;20030;-74
2021/08/28 10:02:28;;;;;;;15.70;11.55;;;;;;;31.92;44.30;94288.25;10328265;28;20375;-74
2021/08/28 10:07:31;;;;;;;18.50;11.23;;;;;;;31.31;44.21;94278.81;10327670;28;20050;-74
2021/08/28 10:12:34;;;;;;;18.50;12.57;;;;;;;29.99;49.46;94277.16;10328137;28;20045;-74
2021/08/28 10:17:34;;;;;;;16.08;11.57;;;;;;;30.10;50.00;94275.06;10327766;28;20055;-74
2021/08/28 10:22:37;;;;;;;21.50;13.23;;;;;;;30.07;49.13;94275.09;10327712;28;20026;-74
2021/08/28 10:27:39;;;;;;;16.90;12.23;;;;;;;29.45;51.29;94272.81;10327341;28;20026;-74
2021/08/28 10:32:40;;;;;;;20.63;12.45;;;;;;;28.95;54.39;94257.28;10327503;28;20026;-73
2021/08/28 10:37:41;;;;;;;16.85;11.75;;;;;;;30.08;50.93;94260.06;10327600;28;20088;-74
2021/08/28 10:42:42;;;;;;;24.55;11.93;;;;;;;32.94;43.44;94246.25;10327039;28;20101;-73
2021/08/28 10:47:45;;;;;;;32.97;10.75;;;;;;;35.55;38.22;94242.63;10326790;28;20393;-73
2021/08/28 10:52:49;;;;;;;14.27;8.65;;;;;;;36.94;35.71;94232.72;10326908;28;20379;-73
2021/08/28 10:58:10;;;;;;;13.70;9.68;;;;;;;36.10;35.80;94236.06;10326905;28;20113;-74
2021/08/28 11:03:34;;;;;;;15.68;10.30;;;;;;;33.79;40.33;94234.38;10326653;28;20022;-73
2021/08/28 11:08:55;;;;;;;19.63;12.05;;;;;;;31.58;44.63;94241.91;10326938;28;20074;-73
2021/08/28 11:14:01;;;;;;;20.60;12.57;;;;;;;30.12;50.78;94225.56;10309372;28;20038;-73
2021/08/28 11:19:01;;;;;;;20.48;13.00;;;;;;;28.83;63.65;94215.47;10326676;28;20073;-74
2021/08/28 11:24:11;;;;;;;25.93;13.43;;;;;;;29.19;70.33;94223.53;10326809;28;20116;-73
2021/08/28 11:29:25;;;;;;;18.48;12.43;;;;;;;28.88;65.50;94206.75;10327094;28;20361;-74
2021/08/28 11:34:29;;;;;;;20.55;11.88;;;;;;;28.93;71.22;94215.41;10326360;28;20027;-74
2021/08/28 11:39:29;;;;;;;30.45;11.85;;;;;;;29.32;67.72;94194.22;10326281;28;20023;-73
2021/08/28 11:44:30;;;;;;;27.60;12.67;;;;;;;29.32;66.96;94183.16;10326249;28;20045;-73
2021/08/28 11:49:32;;;;;;;18.83;13.33;;;;;;;28.67;67.42;94186.31;10326611;28;20084;-73
2021/08/28 11:54:33;;;;;;;18.40;12.70;;;;;;;28.54;72.54;94176.91;10332294;28;20053;-73
2021/08/28 11:59:38;;;;;;;22.35;13.15;;;;;;;28.26;75.38;94164.78;10333402;28;20023;-73
2021/08/28 12:04:39;;;;;;;18.75;13.43;;;;;;;28.06;76.47;94153.41;10332784;28;20026;-74
2021/08/28 12:09:39;;;;;;;22.40;13.02;;;;;;;28.39;75.72;94137.47;10315003;28;20042;-73
2021/08/28 12:14:40;;;;;;;21.48;13.90;;;;;;;27.78;86.38;94130.97;10332730;28;20034;-74
2021/08/28 12:19:41;;;;;;;18.87;12.67;;;;;;;27.94;88.27;94135.28;10332564;28;20033;-73
2021/08/28 12:24:41;;;;;;;24.45;13.32;;;;;;;27.81;81.25;94123.84;10331927;28;20026;-74
2021/08/28 12:29:50;;;;;;;21.97;15.73;;;;;;;27.73;84.81;94114.81;10332235;28;20034;-74
2021/08/28 12:34:53;;;;;;;21.60;14.43;;;;;;;27.68;91.96;94101.41;10314257;28;20031;-75
2021/08/28 12:39:59;;;;;;;20.42;13.90;;;;;;;27.16;100.00;94115.69;10331888;28;20498;-73
2021/08/28 12:45:01;;;;;;;20.48;14.70;;;;;;;27.39;94.44;94100.69;10341110;28;20030;-73
2021/08/28 12:50:03;;;;;;;22.38;14.70;;;;;;;27.14;96.89;94093.22;10330992;28;20401;-73
2021/08/28 12:55:04;;;;;;;22.90;15.35;;;;;;;27.07;100.00;94094.03;10331068;28;20038;-73
2021/08/28 13:00:07;;;;;;;27.80;16.20;;;;;;;26.66;100.00;94086.09;10331019;28;20093;-74
2021/08/28 13:05:20;;;;;;;26.50;16.40;;;;;;;26.34;100.00;94092.34;10329188;28;20395;-73
2021/08/28 13:10:21;;;;;;;26.27;16.40;;;;;;;25.71;100.00;94084.25;10329607;28;20051;-73
2021/08/28 13:15:25;;;;;;;26.45;18.42;;;;;;;24.86;100.00;94082.53;10328036;28;20553;-74
2021/08/28 13:20:28;;;;;;;27.40;18.55;;;;;;;24.13;100.00;94088.50;10327755;28;20034;-73
2021/08/28 13:25:35;;;;;;;35.25;20.85;;;;;;;24.22;100.00;94078.00;10311826;28;20486;-73
2021/08/28 13:30:35;;;;;;;28.73;18.52;;;;;;;24.31;100.00;94069.44;10329574;28;20509;-73
2021/08/28 13:35:39;;;;;;;34.70;18.93;;;;;;;24.54;100.00;94064.56;10329510;28;20030;-73
2021/08/28 13:40:40;;;;;;;28.48;19.73;;;;;;;24.70;100.00;94064.34;10329148;28;20054;-73
2021/08/28 13:45:40;;;;;;;15.60;9.53;;;;;;;24.15;100.00;94072.44;10329191;28;20486;-73
2021/08/28 13:50:41;;;;;;;14.65;9.40;;;;;;;23.48;100.00;94080.25;10329043;28;20039;-74
2021/08/28 13:55:43;;;;;;;16.50;9.47;;;;;;;22.46;100.00;94084.56;10328521;28;20022;-73
2021/08/28 14:00:43;;;;;;;16.88;9.93;;;;;;;22.38;100.00;94091.84;10310753;28;20270;-73
2021/08/28 14:05:44;;;;;;;13.23;7.93;;;;;;;22.25;100.00;94104.91;10328206;28;20042;-73
2021/08/28 14:10:44;;;;;;;11.70;7.70;;;;;;;21.90;100.00;94105.03;10310654;28;20029;-74
2021/08/28 14:15:45;;;;;;;12.00;7.20;;;;;;;22.06;100.00;94119.41;10328190;28;20105;-74
2021/08/28 14:20:45;;;;;;;18.87;8.10;;;;;;;22.24;100.00;94118.94;10328047;28;20025;-73
2021/08/28 14:25:45;;;;;;;22.83;7.27;;;;;;;22.21;100.00;94115.00;10327326;28;20034;-74
2021/08/28 14:30:46;;;;;;;14.95;7.82;;;;;;;22.43;100.00;94123.63;10310031;28;20019;-73
2021/08/28 14:35:46;;;;;;;12.33;6.07;;;;;;;22.36;100.00;94113.34;10327586;28;20030;-73
2021/08/28 14:40:47;;;;;;;8.13;5.53;;;;;;;22.79;100.00;94111.34;10309895;28;20033;-73
2021/08/28 14:45:47;;;;;;;22.60;6.47;;;;;;;22.96;100.00;94133.91;10327657;28;20080;-73
2021/08/28 14:50:48;;;;;;;10.60;6.37;;;;;;;23.10;100.00;94145.09;10327344;28;20034;-73
2021/08/28 14:55:48;;;;;;;22.60;10.00;;;;;;;23.06;100.00;94154.44;10327567;28;20034;-74
2021/08/28 15:00:49;;;;;;;20.10;8.33;;;;;;;22.82;100.00;94148.16;10326937;28;20022;-73
2021/08/28 15:05:49;;;;;;;14.07;7.00;;;;;;;22.68;100.00;94187.84;10327077;28;20505;-73
2021/08/28 15:10:49;;;;;;;13.63;7.97;;;;;;;22.23;100.00;94200.28;10326909;28;20114;-74
2021/08/28 15:15:50;;;;;;;10.67;5.90;;;;;;;22.09;100.00;94208.19;10309187;28;20026;-73
2021/08/28 15:20:50;;;;;;;14.57;6.33;;;;;;;22.04;100.00;94220.22;10326727;28;20029;-74
2021/08/28 15:25:51;;;;;;;19.20;8.95;;;;;;;22.01;100.00;94226.41;10327519;28;20381;-74
2021/08/28 15:30:52;;;;;;;22.43;11.10;;;;;;;21.63;100.00;94245.13;10334256;28;20030;-73
2021/08/28 15:35:53;;;;;;;22.45;12.05;;;;;;;20.52;100.00;94262.22;10334348;28;20269;-73
2021/08/28 15:40:55;;;;;;;35.05;15.98;;;;;;;19.92;100.00;94262.06;10316724;28;20023;-73
2021/08/28 15:45:56;;;;;;;39.60;16.73;;;;;;;19.80;100.00;94251.97;10333464;28;20034;-73
2021/08/28 15:50:56;;;;;;;28.15;15.10;;;;;;;19.48;100.00;94284.47;10333613;28;20030;-73
2021/08/28 15:55:57;;;;;;;36.90;17.87;;;;;;;19.39;100.00;94289.22;10333512;28;20037;-73
2021/08/28 16:00:57;;;;;;;25.42;15.63;;;;;;;19.30;100.00;94281.16;10333024;28;20034;-73
2021/08/28 16:05:59;;;;;;;29.50;13.80;;;;;;;19.05;100.00;94264.00;10333249;28;20058;-73
2021/08/28 16:10:59;;;;;;;34.67;15.02;;;;;;;18.98;100.00;94261.84;10332929;28;20499;-73
2021/08/28 16:16:00;;;;;;;31.25;15.18;;;;;;;18.86;100.00;94250.91;10332698;28;20030;-73
2021/08/28 16:21:00;;;;;;;31.40;15.37;;;;;;;18.56;100.00;94230.06;10332720;28;20108;-73
2021/08/28 16:26:00;;;;;;;30.70;16.50;;;;;;;18.49;100.00;94231.75;10332409;28;20119;-73
2021/08/28 16:31:01;;;;;;;22.93;14.13;;;;;;;18.38;100.00;94250.44;10330960;28;20035;-73
2021/08/28 16:36:02;;;;;;;23.60;13.30;;;;;;;18.27;100.00;94261.72;10330461;28;20273;-73
2021/08/28 16:41:03;;;;;;;21.05;13.07;;;;;;;18.19;100.00;94248.19;10331739;28;20390;-73
2021/08/28 16:46:03;;;;;;;24.95;14.77;;;;;;;18.16;100.00;94246.94;10331462;28;20037;-73
2021/08/28 16:51:04;;;;;;;31.40;14.07;;;;;;;17.99;100.00;94228.06;10331210;28;20023;-73
2021/08/28 16:56:04;;;;;;;25.58;13.32;;;;;;;17.91;100.00;94227.78;10314153;28;20132;-73
2021/08/28 17:01:05;;;;;;;31.07;14.60;;;;;;;18.01;100.00;94223.84;10331214;28;20816;-72
2021/08/28 17:06:05;;;;;;;25.97;13.13;;;;;;;17.91;100.00;94225.06;10330585;28;20546;-73
2021/08/28 17:11:05;;;;;;;24.37;14.93;;;;;;;18.04;100.00;94234.09;10330740;28;20352;-73
2021/08/28 17:16:06;;;;;;;30.13;15.02;;;;;;;17.98;100.00;94229.97;10330445;28;20170;-73
2021/08/28 17:21:07;;;;;;;25.63;15.43;;;;;;;18.05;100.00;94238.38;10312705;28;20026;-73
2021/08/28 17:26:08;;;;;;;25.77;15.07;;;;;;;17.93;100.00;94270.94;10330182;28;20022;-74
2021/08/28 17:31:08;;;;;;;29.10;16.45;;;;;;;18.06;100.00;94274.53;10329772;28;20033;-73
2021/08/28 17:36:08;;;;;;;25.67;14.80;;;;;;;17.92;100.00;94281.03;10329252;28;20026;-73
2021/08/28 17:41:09;;;;;;;28.55;15.20;;;;;;;18.00;100.00;94289.44;10329364;28;20485;-73
2021/08/28 17:46:09;;;;;;;26.27;15.30;;;;;;;18.14;100.00;94290.00;10329044;28;20398;-73
2021/08/28 17:51:10;;;;;;;27.48;16.00;;;;;;;17.91;100.00;94294.94;10328584;28;20034;-74
2021/08/28 17:56:10;;;;;;;31.55;15.65;;;;;;;17.83;100.00;94291.13;10328903;28;20050;-73
2021/08/28 18:01:11;;;;;;;30.57;16.27;;;;;;;17.72;100.00;94306.22;10328667;28;20026;-73
2021/08/28 18:06:12;;;;;;;29.88;15.50;;;;;;;17.50;100.00;94299.97;10328309;28;20301;-74
2021/08/28 18:11:12;;;;;;;32.33;15.18;;;;;;;17.49;100.00;94303.78;10328179;28;20030;-74
2021/08/28 18:16:12;;;;;;;29.33;15.83;;;;;;;17.66;100.00;94313.78;10328329;28;20030;-74
2021/08/28 18:21:13;;;;;;;34.95;18.35;;;;;;;17.79;100.00;94309.25;10328088;28;20026;-73
2021/08/28 18:26:13;;;;;;;31.07;15.77;;;;;;;17.75;100.00;94300.94;10327849;28;20025;-74
2021/08/28 18:31:14;;;;;;;28.33;15.30;;;;;;;17.70;100.00;94294.91;10327998;28;20393;-73
2021/08/28 18:36:14;;;;;;;28.13;16.10;;;;;;;17.76;100.00;94291.66;10326989;28;20030;-73
2021/08/28 18:41:14;;;;;;;27.13;15.03;;;;;;;17.80;100.00;94291.78;10327391;28;20487;-74
2021/08/28 18:46:16;;;;;;;30.83;14.88;;;;;;;17.82;100.00;94292.28;10327408;28;20288;-74
2021/08/28 18:51:16;;;;;;;31.67;16.63;;;;;;;17.80;100.00;94288.28;10327508;28;20026;-74
2021/08/28 18:56:17;;;;;;;31.17;16.17;;;;;;;17.67;100.00;94281.97;10327370;28;20490;-73
2021/08/28 19:01:18;;;;;;;29.95;16.38;;;;;;;17.57;100.00;94286.66;10330739;28;20022;-73
2021/08/28 19:06:18;;;;;;;36.60;18.05;;;;;;;17.65;100.00;94293.19;10335434;28;20153;-74
2021/08/28 19:11:18;;;;;;;28.37;16.00;;;;;;;17.53;100.00;94282.22;10334095;28;20034;-73
2021/08/28 19:16:19;;;;;;;27.90;16.00;;;;;;;17.47;100.00;94281.59;10335025;28;20034;-74
2021/08/28 19:21:20;;;;;;;24.17;13.93;;;;;;;17.46;100.00;94276.50;10317527;28;20025;-74
2021/08/28 19:26:20;;;;;;;24.83;14.23;;;;;;;17.47;100.00;94261.78;10334821;28;20379;-73
2021/08/28 19:31:21;;;;;;;30.70;12.80;;;;;;;17.49;100.00;94254.91;10333261;28;20172;-73
2021/08/28 19:36:24;;;;;;;22.13;13.23;;;;;;;17.50;100.00;94255.69;10333025;28;20470;-74
2021/08/28 19:41:24;;;;;;;23.65;13.00;;;;;;;17.44;100.00;94246.91;10332962;28;20808;-73
2021/08/28 19:46:24;;;;;;;24.43;13.60;;;;;;;17.45;100.00;94262.09;10332598;28;20026;-73
2021/08/28 19:51:25;;;;;;;23.52;13.73;;;;;;;17.41;100.00;94261.16;10332371;28;20022;-73
2021/08/28 19:56:25;;;;;;;24.50;15.07;;;;;;;17.32;100.00;94266.66;10332552;28;20037;-73
2021/08/28 20:01:25;;;;;;;27.83;14.17;;;;;;;17.32;100.00;94260.44;10331726;28;20022;-74
2021/08/28 20:06:26;;;;;;;23.13;14.33;;;;;;;17.40;100.00;94251.41;10331797;28;20801;-73
2021/08/28 20:11:26;;;;;;;22.43;12.13;;;;;;;17.41;100.00;94248.41;10331012;28;20109;-73
2021/08/28 20:16:27;;;;;;;24.30;14.88;;;;;;;17.39;100.00;94237.06;10331617;28;20030;-73
2021/08/28 20:21:27;;;;;;;20.40;13.50;;;;;;;17.44;100.00;94241.50;10331586;28;20401;-73
2021/08/28 20:26:28;;;;;;;21.48;12.73;;;;;;;17.46;100.00;94230.31;10330574;28;20274;-73
2021/08/28 20:31:29;;;;;;;23.25;12.57;;;;;;;17.42;100.00;94227.47;10329696;28;20030;-74
2021/08/28 20:36:29;;;;;;;21.98;13.50;;;;;;;17.48;100.00;94223.41;10329789;28;20105;-73
2021/08/28 20:41:29;;;;;;;18.87;11.43;;;;;;;17.46;100.00;94228.38;10330670;28;20395;-73
2021/08/28 20:46:30;;;;;;;20.50;11.37;;;;;;;17.49;100.00;94211.44;10330602;28;20273;-74
2021/08/28 20:51:30;;;;;;;16.52;11.13;;;;;;;17.44;100.00;94189.88;10330102;28;20089;-73
2021/08/28 20:56:31;;;;;;;19.63;11.03;;;;;;;17.40;100.00;94195.19;10330139;28;20030;-73
2021/08/28 21:01:31;;;;;;;20.53;9.90;;;;;;;17.28;100.00;94191.59;10330018;28;20110;-74
2021/08/28 21:06:31;;;;;;;15.70;8.67;;;;;;;17.22;100.00;94188.28;10329758;28;20305;-73
2021/08/28 21:11:32;;;;;;;17.60;10.17;;;;;;;17.16;100.00;94182.22;10312008;28;20282;-74
2021/08/28 21:16:33;;;;;;;17.05;10.75;;;;;;;17.11;100.00;94182.44;10329474;28;20281;-73
2021/08/28 21:21:33;;;;;;;17.58;11.50;;;;;;;17.05;100.00;94189.97;10329015;28;20018;-73
2021/08/28 21:26:34;;;;;;;18.98;11.82;;;;;;;16.94;100.00;94187.94;10328011;28;20034;-73
2021/08/28 21:31:35;;;;;;;16.50;11.70;;;;;;;16.99;100.00;94198.63;10328780;28;20402;-73
2021/08/28 21:36:36;;;;;;;22.33;12.85;;;;;;;16.97;100.00;94190.00;10328403;28;20034;-74
2021/08/28 21:41:36;;;;;;;19.05;10.05;;;;;;;17.01;100.00;94178.16;10328324;28;20030;-74
2021/08/28 21:46:36;;;;;;;15.13;10.20;;;;;;;17.07;100.00;94189.63;10327899;28;20026;-73
2021/08/28 21:51:37;;;;;;;17.30;11.70;;;;;;;17.08;100.00;94177.66;10327203;28;20144;-73
2021/08/28 21:56:37;;;;;;;18.30;11.60;;;;;;;16.99;100.00;94169.53;10310070;28;20356;-73
2021/08/28 22:01:38;;;;;;;24.35;12.18;;;;;;;16.94;100.00;94187.94;10310408;28;20018;-73
2021/08/28 22:06:38;;;;;;;19.50;12.13;;;;;;;16.96;100.00;94183.00;10327516;28;20112;-74
2021/08/28 22:11:39;;;;;;;22.10;14.27;;;;;;;17.01;100.00;94182.78;10327354;28;20038;-74
2021/08/28 22:16:39;;;;;;;25.60;14.20;;;;;;;16.94;100.00;94182.50;10327009;28;20019;-74
2021/08/28 22:21:40;;;;;;;21.77;12.50;;;;;;;17.04;100.00;94182.16;10327079;28;20089;-73
2021/08/28 22:26:40;;;;;;;21.67;13.45;;;;;;;17.01;100.00;94182.78;10326467;28;20022;-74
2021/08/28 22:31:41;;;;;;;24.77;13.93;;;;;;;17.04;100.00;94174.78;10326594;28;20026;-74
2021/08/28 22:36:41;;;;;;;20.35;12.52;;;;;;;16.95;100.00;94171.31;10326292;28;20029;-73
2021/08/28 22:41:41;;;;;;;27.17;14.13;;;;;;;16.92;100.00;94166.56;10325982;28;20036;-73